Time;durP1;ratioP1;P1;durP2;ratioP2;P2;SDS_P1;SDS_P2;PMS_P1;PMS_P2;Temp;Humidity;BMP_temperature;BMP_pressure;BME280_temperature;BME280_humidity;BME280_pressure;Samples;Min_cycle;Max_cycle;Signal;HPM_P1;HPM_P2
2022/06/23 00:00:03;;;;;;;3.47;2.10;;;23.70;67.50;;;;;;5014992;28;20390;-66
2022/06/23 00:02:32;;;;;;;5.80;2.45;;;23.80;67.30;;;;;;4996294;28;20118;-65
2022/06/23 00:05:06;;;;;;;3.53;2.13;;;23.80;67.10;;;;;;5014700;28;20034;-66
2022/06/23 00:07:35;;;;;;;4.63;2.33;;;23.70;67.20;;;;;;5013949;28;20475;-66
2022/06/23 00:10:12;;;;;;;3.92;2.20;;;23.60;67.50;;;;;;5013580;28;20026;-66
2022/06/23 00:12:40;;;;;;;4.53;2.17;;;23.50;68.20;;;;;;5014340;28;20034;-67
2022/06/23 00:15:06;;;;;;;8.23;2.33;;;23.60;66.90;;;;;;5014400;28;20105;-66
2022/06/23 00:17:35;;;;;;;3.47;1.60;;;23.60;66.90;;;;;;5014365;28;20105;-66
2022/06/23 00:20:05;;;;;;;4.38;2.50;;;23.60;66.40;;;;;;5014653;28;20026;-65
2022/06/23 00:22:32;;;;;;;6.40;2.10;;;23.50;66.20;;;;;;5014291;28;20048;-69
2022/06/23 00:25:02;;;;;;;4.20;2.10;;;23.50;65.80;;;;;;5014532;28;20025;-66
2022/06/23 00:27:37;;;;;;;5.40;2.10;;;23.60;65.60;;;;;;5013882;28;20476;-66
2022/06/23 00:30:17;;;;;;;6.13;2.20;;;23.50;65.60;;;;;;5014365;28;20022;-66
2022/06/23 00:32:43;;;;;;;3.55;2.03;;;23.40;65.30;;;;;;5013968;28;20434;-65
2022/06/23 00:35:15;;;;;;;6.13;2.50;;;23.50;65.30;;;;;;5014317;28;20093;-65
2022/06/23 00:37:49;;;;;;;6.30;2.70;;;23.40;65.30;;;;;;5014000;28;20029;-66
2022/06/23 00:40:20;;;;;;;6.40;2.50;;;23.30;65.30;;;;;;5014025;28;20172;-67
2022/06/23 00:43:03;;;;;;;3.40;2.10;;;23.40;65.30;;;;;;5014657;28;20519;-72
2022/06/23 00:45:40;;;;;;;3.60;2.42;;;23.40;65.30;;;;;;5014420;28;20022;-70
2022/06/23 00:48:40;;;;;;;6.22;2.30;;;23.40;65.10;;;;;;5013892;28;20033;-68
2022/06/23 00:51:23;;;;;;;6.25;2.13;;;23.30;65.30;;;;;;4981828;28;20487;-67
2022/06/23 00:53:59;;;;;;;3.83;1.98;;;23.30;65.10;;;;;;5013763;28;20022;-69
2022/06/23 00:56:40;;;;;;;5.18;1.90;;;23.20;65.10;;;;;;5013625;28;20498;-65
2022/06/23 00:59:11;;;;;;;5.45;2.05;;;23.30;65.10;;;;;;5013980;28;20084;-68
2022/06/23 01:01:57;;;;;;;6.22;2.30;;;23.30;64.70;;;;;;5013647;28;20022;-66
2022/06/23 01:04:42;;;;;;;7.85;2.20;;;23.30;64.80;;;;;;5013614;28;20372;-65
2022/06/23 01:07:13;;;;;;;4.05;2.50;;;23.30;64.60;;;;;;5013645;28;20018;-67
2022/06/23 01:09:47;;;;;;;5.43;2.30;;;23.30;64.70;;;;;;5013456;28;20443;-71
2022/06/23 01:12:25;;;;;;;3.60;2.40;;;23.30;64.70;;;;;;5013913;28;20022;-66
2022/06/23 01:15:01;;;;;;;4.53;2.42;;;23.20;65.50;;;;;;5013473;28;20025;-66
2022/06/23 01:17:37;;;;;;;3.22;2.10;;;23.20;64.90;;;;;;5013607;28;20014;-66
2022/06/23 01:20:40;;;;;;;4.50;2.10;;;23.20;64.90;;;;;;5013264;28;20040;-65
2022/06/23 01:23:28;;;;;;;6.28;2.38;;;23.20;64.90;;;;;;5013508;28;20030;-66
2022/06/23 01:26:27;;;;;;;3.50;2.17;;;23.20;64.70;;;;;;5013407;28;20463;-67
2022/06/23 01:29:07;;;;;;;6.63;2.40;;;23.10;64.70;;;;;;5013078;28;20521;-66
2022/06/23 01:31:58;;;;;;;6.15;2.42;;;23.20;64.60;;;;;;5013259;28;20034;-66
2022/06/23 01:34:59;;;;;;;3.40;1.95;;;23.20;64.60;;;;;;5012053;28;20037;-65
2022/06/23 01:37:43;;;;;;;4.78;2.30;;;23.20;64.40;;;;;;5013505;28;20105;-66
2022/06/23 01:40:16;;;;;;;5.53;2.45;;;23.20;65.30;;;;;;5012851;28;20091;-66
2022/06/23 01:43:00;;;;;;;6.88;2.65;;;23.10;64.50;;;;;;5013194;28;20491;-65
2022/06/23 01:45:42;;;;;;;4.93;2.40;;;23.10;64.60;;;;;;5013282;28;20022;-67
2022/06/23 01:51:20;;;;;;;4.88;2.10;;;23.10;64.50;;;;;;5013229;28;20061;-66
2022/06/23 01:53:46;;;;;;;6.38;2.45;;;23.00;64.40;;;;;;5013092;28;20033;-66
2022/06/23 01:56:18;;;;;;;4.03;2.30;;;23.00;64.40;;;;;;5013394;28;20109;-65
2022/06/23 01:59:06;;;;;;;5.60;2.42;;;23.00;64.30;;;;;;5013254;28;20038;-66
2022/06/23 02:01:37;;;;;;;5.60;2.15;;;23.10;64.20;;;;;;4997316;28;20030;-66
2022/06/23 02:04:20;;;;;;;3.53;1.95;;;23.00;64.20;;;;;;5017370;28;20053;-66
2022/06/23 02:06:57;;;;;;;6.20;2.25;;;23.00;64.00;;;;;;5017049;28;20026;-67
2022/06/23 02:09:39;;;;;;;6.28;2.45;;;23.00;64.00;;;;;;4999488;28;20084;-71
2022/06/23 02:12:17;;;;;;;3.45;2.10;;;23.10;63.70;;;;;;5017007;28;20026;-66
2022/06/23 02:14:57;;;;;;;6.15;2.20;;;23.10;63.40;;;;;;5017000;28;20053;-72
2022/06/23 02:17:34;;;;;;;6.30;2.30;;;23.10;63.20;;;;;;5016934;28;20562;-73
2022/06/23 02:20:24;;;;;;;5.75;2.30;;;23.10;63.30;;;;;;5016597;28;20514;-73
2022/06/23 02:23:07;;;;;;;5.50;1.90;;;23.10;63.00;;;;;;4999025;28;20125;-70
2022/06/23 02:25:38;;;;;;;4.32;2.13;;;23.10;63.10;;;;;;5016622;28;20037;-71
2022/06/23 02:28:09;;;;;;;6.13;2.10;;;23.10;63.20;;;;;;5016519;28;20490;-70
2022/06/23 02:30:40;;;;;;;3.03;1.90;;;23.00;63.30;;;;;;5016246;28;20021;-69
2022/06/23 02:33:24;;;;;;;5.65;2.33;;;22.90;63.40;;;;;;5016490;28;20054;-72
2022/06/23 02:36:06;;;;;;;4.90;2.25;;;22.90;63.50;;;;;;5016102;28;20029;-70
2022/06/23 02:38:37;;;;;;;;;;;22.90;63.50;;;;;;5016807;28;20189;-72
2022/06/23 02:41:02;;;;;;;5.07;2.15;;;22.90;63.40;;;;;;5016190;28;19907;-71
2022/06/23 02:43:41;;;;;;;5.57;2.20;;;22.90;63.40;;;;;;5016206;28;20025;-69
2022/06/23 02:46:33;;;;;;;6.30;1.83;;;22.80;63.50;;;;;;4998676;28;20403;-71
2022/06/23 02:49:21;;;;;;;5.13;2.13;;;22.70;63.40;;;;;;5016271;28;20057;-71
2022/06/23 02:52:21;;;;;;;7.53;2.45;;;22.70;63.50;;;;;;5002637;28;20045;-68
2022/06/23 02:55:06;;;;;;;3.85;2.20;;;22.70;63.50;;;;;;5015879;28;20467;-67
2022/06/23 02:57:39;;;;;;;4.10;2.25;;;22.60;63.70;;;;;;5015848;28;20486;-66
2022/06/23 03:00:28;;;;;;;3.22;2.20;;;22.60;63.60;;;;;;5016040;28;20084;-68
2022/06/23 03:03:15;;;;;;;6.93;2.28;;;22.60;63.70;;;;;;5015877;28;20113;-66
2022/06/23 03:06:03;;;;;;;7.35;2.25;;;22.60;63.80;;;;;;5015637;28;20030;-66
2022/06/23 03:09:08;;;;;;;3.60;2.13;;;22.60;64.00;;;;;;5015914;28;20026;-65
2022/06/23 03:11:51;;;;;;;3.35;2.40;;;22.60;63.90;;;;;;5015754;28;20025;-65
2022/06/23 03:14:44;;;;;;;6.25;2.05;;;22.60;63.90;;;;;;5015166;28;20033;-65
2022/06/23 03:17:19;;;;;;;9.85;2.72;;;22.60;63.80;;;;;;5015682;28;20480;-66
2022/06/23 03:19:55;;;;;;;6.90;2.75;;;22.40;64.20;;;;;;5015286;28;20044;-66
2022/06/23 03:22:37;;;;;;;5.85;2.30;;;22.40;64.20;;;;;;5015912;28;20026;-66
2022/06/23 03:25:16;;;;;;;5.40;2.42;;;22.50;63.90;;;;;;5016328;28;20022;-72
2022/06/23 03:27:53;;;;;;;4.40;2.53;;;22.50;63.90;;;;;;5015430;28;20036;-71
2022/06/23 03:30:28;;;;;;;6.03;2.80;;;22.50;64.00;;;;;;5015464;28;20033;-73
2022/06/23 03:33:06;;;;;;;5.55;2.40;;;22.50;63.80;;;;;;5015387;28;20041;-69
2022/06/23 03:35:43;;;;;;;3.65;2.53;;;22.50;63.80;;;;;;5015134;28;20030;-71
2022/06/23 03:38:19;;;;;;;4.82;2.20;;;22.40;63.90;;;;;;5015145;28;20054;-73
2022/06/23 03:43:41;;;;;;;6.78;2.33;;;22.30;64.10;;;;;;5015013;28;20561;-72
2022/06/23 03:46:18;;;;;;;5.43;2.97;;;22.30;64.30;;;;;;5015400;28;20080;-71
2022/06/23 03:49:00;;;;;;;8.32;2.70;;;22.30;64.40;;;;;;5014684;28;20026;-72
2022/06/23 03:51:34;;;;;;;3.20;2.30;;;22.30;64.30;;;;;;5015271;28;20025;-68
2022/06/23 03:54:12;;;;;;;5.50;2.38;;;22.30;64.30;;;;;;5014996;28;20033;-65
2022/06/23 03:56:43;;;;;;;6.22;2.63;;;22.30;64.20;;;;;;5015394;28;20145;-65
2022/06/23 03:59:20;;;;;;;5.57;2.53;;;22.40;64.10;;;;;;5015270;28;20084;-66
2022/06/23 04:02:01;;;;;;;4.93;2.75;;;22.40;64.20;;;;;;5014111;28;20467;-67
2022/06/23 04:04:39;;;;;;;11.73;3.17;;;22.30;64.20;;;;;;5015441;28;20058;-66
2022/06/23 04:07:27;;;;;;;5.05;2.55;;;22.30;64.50;;;;;;5015408;28;20030;-69
2022/06/23 04:09:54;;;;;;;7.60;2.67;;;22.30;64.30;;;;;;5014904;28;20093;-66
2022/06/23 04:12:19;;;;;;;7.25;2.30;;;22.40;64.20;;;;;;5014921;28;20028;-67
2022/06/23 04:15:09;;;;;;;6.05;2.97;;;22.40;64.10;;;;;;5015181;28;20104;-66
2022/06/23 04:17:38;;;;;;;6.68;2.67;;;22.40;64.20;;;;;;5014968;28;20127;-71
2022/06/23 04:20:10;;;;;;;7.85;2.60;;;22.40;64.40;;;;;;5016037;28;20034;-69
2022/06/23 04:22:45;;;;;;;5.93;2.58;;;22.30;64.40;;;;;;5014896;28;20037;-72
2022/06/23 04:25:17;;;;;;;10.10;2.83;;;22.30;64.60;;;;;;5013718;28;20025;-73
2022/06/23 04:27:51;;;;;;;;;;;22.20;64.70;;;;;;5014679;28;20468;-72
2022/06/23 04:30:33;;;;;;;5.03;2.75;;;22.30;64.60;;;;;;5014354;28;19906;-72
2022/06/23 04:33:03;;;;;;;3.83;2.47;;;22.30;64.70;;;;;;5014093;28;20088;-69
2022/06/23 04:35:36;;;;;;;4.45;2.60;;;22.30;64.80;;;;;;5014301;28;20494;-68
2022/06/23 04:38:18;;;;;;;6.07;2.03;;;22.30;64.70;;;;;;5013999;28;20281;-70
2022/06/23 04:40:45;;;;;;;8.27;2.55;;;22.30;64.70;;;;;;5014097;28;20034;-72
2022/06/23 04:43:35;;;;;;;3.42;2.38;;;22.30;64.80;;;;;;5013973;28;20030;-69
2022/06/23 04:46:07;;;;;;;4.97;2.72;;;22.30;64.90;;;;;;5014006;28;20044;-71
2022/06/23 04:48:39;;;;;;;5.68;2.90;;;22.30;64.90;;;;;;5013754;28;20018;-70
2022/06/23 04:51:23;;;;;;;7.82;2.58;;;22.20;65.20;;;;;;5014020;28;20034;-71
2022/06/23 04:53:53;;;;;;;3.75;2.45;;;22.20;65.30;;;;;;5013979;28;20026;-71
2022/06/23 04:56:43;;;;;;;5.82;3.00;;;22.20;65.30;;;;;;5014048;28;20022;-71
2022/06/23 04:59:35;;;;;;;5.57;2.80;;;22.20;65.30;;;;;;5012627;28;20042;-73
2022/06/23 05:02:27;;;;;;;6.30;3.13;;;22.10;65.60;;;;;;5011131;28;20077;-71
2022/06/23 05:05:16;;;;;;;9.52;3.08;;;22.10;65.70;;;;;;5010207;28;20030;-72
2022/06/23 05:08:06;;;;;;;7.18;2.92;;;22.10;65.80;;;;;;5012684;28;20032;-73
2022/06/23 05:10:43;;;;;;;7.28;2.85;;;22.10;65.80;;;;;;5011096;28;20502;-70
2022/06/23 05:13:15;;;;;;;6.28;2.97;;;22.20;65.70;;;;;;5013706;28;20029;-70
2022/06/23 05:15:44;;;;;;;;;;;22.20;65.90;;;;;;5013466;28;20076;-73
2022/06/23 05:18:22;;;;;;;6.63;3.15;;;22.20;65.90;;;;;;5013743;28;20430;-65
2022/06/23 05:20:58;;;;;;;8.27;3.33;;;22.20;65.90;;;;;;5013548;28;20048;-71
2022/06/23 05:23:29;;;;;;;7.00;3.20;;;22.10;66.20;;;;;;5013646;28;20045;-67
2022/06/23 05:26:04;;;;;;;4.10;2.58;;;22.10;66.20;;;;;;5011074;28;20889;-68
2022/06/23 05:28:33;;;;;;;6.85;2.20;;;22.40;67.00;;;;;;5019397;28;20501;-67
2022/06/23 05:31:03;;;;;;;5.13;2.47;;;22.70;66.10;;;;;;5011561;28;20030;-67
2022/06/23 05:33:41;;;;;;;4.70;2.15;;;22.80;66.30;;;;;;5012809;28;20030;-68
2022/06/23 05:36:19;;;;;;;4.50;2.25;;;22.90;65.40;;;;;;5011399;28;20053;-67
2022/06/23 05:39:00;;;;;;;7.05;2.83;;;23.00;65.50;;;;;;5010785;28;20026;-66
2022/06/23 05:41:32;;;;;;;6.82;3.17;;;23.00;65.50;;;;;;4993168;28;20034;-67
2022/06/23 05:43:58;;;;;;;9.55;3.10;;;23.00;65.50;;;;;;5006244;28;20018;-69
2022/06/23 05:46:27;;;;;;;5.70;2.80;;;23.00;65.90;;;;;;4996542;28;20743;-70
2022/06/23 05:49:04;;;;;;;5.55;2.65;;;23.00;65.80;;;;;;5020620;28;20450;-67
2022/06/23 05:52:07;;;;;;;9.10;1.88;;;23.10;66.40;;;;;;5013420;28;20026;-73
2022/06/23 05:54:32;;;;;;;5.57;1.77;;;23.10;67.20;;;;;;5000739;28;20399;-73
2022/06/23 05:57:36;;;;;;;3.08;1.40;;;23.10;67.70;;;;;;5012542;28;20479;-71
2022/06/23 06:00:31;;;;;;;4.78;1.80;;;23.20;68.00;;;;;;4940819;28;20301;-70
2022/06/23 06:03:02;;;;;;;6.07;1.70;;;23.20;68.00;;;;;;5003187;28;20080;-67
2022/06/23 06:05:35;;;;;;;4.07;2.17;;;23.20;68.00;;;;;;5011657;28;20025;-72
2022/06/23 06:08:06;;;;;;;9.00;2.15;;;23.30;68.20;;;;;;5011018;28;20022;-73
2022/06/23 06:10:34;;;;;;;3.13;1.40;;;23.40;68.20;;;;;;4994504;28;20598;-71
2022/06/23 06:13:02;;;;;;;5.35;1.70;;;23.40;68.20;;;;;;5011170;28;20030;-71
2022/06/23 06:15:36;;;;;;;5.40;1.58;;;23.50;68.20;;;;;;5011310;28;20467;-68
2022/06/23 06:18:29;;;;;;;7.95;1.75;;;23.50;68.20;;;;;;5001653;28;20046;-70
2022/06/23 06:20:57;;;;;;;9.10;2.50;;;23.60;68.30;;;;;;5009919;28;20495;-67
2022/06/23 06:23:47;;;;;;;8.07;1.95;;;23.60;68.30;;;;;;5009472;28;20029;-67
2022/06/23 06:26:16;;;;;;;6.60;1.98;;;23.70;68.50;;;;;;5012027;28;20030;-68
2022/06/23 06:28:42;;;;;;;6.85;1.77;;;23.70;68.30;;;;;;5010376;28;20037;-66
2022/06/23 06:31:23;;;;;;;19.33;2.33;;;23.80;68.30;;;;;;5011814;28;20054;-66
2022/06/23 06:33:54;;;;;;;4.35;2.00;;;23.80;68.40;;;;;;5011537;28;20500;-66
2022/06/23 06:36:45;;;;;;;6.15;2.00;;;23.90;68.50;;;;;;5014594;28;20029;-72
2022/06/23 06:45:58;;;;;;;5.70;1.90;;;24.00;68.10;;;;;;5013416;28;20037;-72
2022/06/23 06:55:29;;;;;;;7.15;1.85;;;24.20;68.70;;;;;;5017258;28;20498;-66
2022/06/23 06:58:18;;;;;;;10.85;2.47;;;24.20;68.80;;;;;;5011790;28;20026;-67
2022/06/23 07:01:06;;;;;;;5.43;2.17;;;24.30;68.70;;;;;;5015849;28;20113;-71
2022/06/23 07:11:01;;;;;;;7.78;2.70;;;24.40;69.00;;;;;;4997069;28;20021;-72
2022/06/23 07:13:48;;;;;;;10.98;2.30;;;24.40;69.10;;;;;;5010240;28;20022;-69
2022/06/23 07:16:38;;;;;;;6.82;2.47;;;24.50;69.00;;;;;;4995760;28;20030;-73
2022/06/23 07:19:17;;;;;;;10.60;2.90;;;24.50;69.30;;;;;;4995451;28;20089;-71
2022/06/23 07:25:47;;;;;;;8.45;2.70;;;24.60;69.80;;;;;;5016219;28;20391;-73
2022/06/23 07:28:34;;;;;;;15.10;3.15;;;24.70;70.10;;;;;;4996521;28;20030;-73
2022/06/23 07:31:20;;;;;;;8.18;3.10;;;24.80;70.40;;;;;;4998044;28;20033;-68
2022/06/23 07:33:50;;;;;;;8.18;3.20;;;24.80;70.90;;;;;;5003799;28;20479;-68
2022/06/23 07:36:33;;;;;;;10.05;2.97;;;24.90;71.80;;;;;;5015156;28;20026;-68
2022/06/23 07:39:33;;;;;;;10.35;3.05;;;24.90;71.00;;;;;;5003712;28;20041;-72
2022/06/23 07:42:04;;;;;;;11.70;3.05;;;25.10;71.70;;;;;;5010502;28;20475;-68
2022/06/23 07:45:08;;;;;;;7.75;3.97;;;25.10;71.80;;;;;;5010924;28;20391;-68
2022/06/23 07:47:34;;;;;;;10.55;4.60;;;25.10;73.50;;;;;;5010860;28;20026;-67
2022/06/23 07:50:01;;;;;;;8.70;4.35;;;25.10;74.80;;;;;;5011078;28;20572;-68
2022/06/23 07:52:27;;;;;;;8.65;5.13;;;25.20;75.60;;;;;;5014000;28;20064;-69
2022/06/23 07:54:54;;;;;;;15.95;4.78;;;25.20;76.60;;;;;;5009538;28;20065;-66
2022/06/23 07:57:19;;;;;;;11.90;5.20;;;25.20;77.40;;;;;;5011322;28;20025;-67
2022/06/23 07:59:57;;;;;;;8.48;4.35;;;25.20;77.60;;;;;;5012684;28;20491;-68
2022/06/23 08:03:11;;;;;;;7.32;4.63;;;25.30;77.30;;;;;;5011090;28;20032;-76
2022/06/23 08:05:48;;;;;;;7.88;4.43;;;25.30;76.90;;;;;;4923672;29;20419;-74
2022/06/23 08:08:19;;;;;;;6.90;4.05;;;25.30;77.20;;;;;;4929671;29;20051;-70
2022/06/23 08:10:46;;;;;;;9.40;4.03;;;25.40;77.10;;;;;;4974970;28;20503;-72
2022/06/23 08:13:27;;;;;;;8.25;3.92;;;25.40;76.80;;;;;;4992647;28;20141;-77
2022/06/23 08:19:01;;;;;;;9.43;3.63;;;25.60;76.00;;;;;;5013590;28;20048;-85
2022/06/23 08:21:31;;;;;;;8.35;4.00;;;25.60;75.60;;;;;;5012473;28;20061;-86
2022/06/23 08:23:59;;;;;;;5.63;3.63;;;25.50;75.90;;;;;;4996877;28;20433;-86
2022/06/23 08:26:26;;;;;;;8.82;4.00;;;25.70;77.10;;;;;;5001039;28;20395;-78
2022/06/23 08:28:57;;;;;;;8.82;3.92;;;25.70;77.10;;;;;;5013620;28;20029;-86
2022/06/23 08:31:25;;;;;;;8.27;4.05;;;25.70;77.10;;;;;;5012572;28;20025;-85
2022/06/23 08:33:58;;;;;;;5.75;3.50;;;25.70;76.40;;;;;;5002187;28;20033;-83
2022/06/23 08:36:36;;;;;;;7.40;3.95;;;25.70;76.40;;;;;;5012876;28;20458;-81
2022/06/23 08:39:24;;;;;;;8.52;3.50;;;25.70;76.30;;;;;;5021189;28;20042;-72
2022/06/23 08:42:09;;;;;;;7.68;3.33;;;25.80;75.40;;;;;;4985563;28;20041;-87
2022/06/23 08:45:10;;;;;;;7.47;4.18;;;25.80;75.90;;;;;;5012275;28;20040;-71
2022/06/23 08:48:04;;;;;;;8.10;3.65;;;25.80;76.30;;;;;;5005257;28;20030;-82
2022/06/23 08:50:42;;;;;;;8.32;3.83;;;25.90;76.10;;;;;;5009258;28;20034;-83
2022/06/23 08:53:28;;;;;;;10.32;4.30;;;25.80;75.60;;;;;;5015184;28;20017;-86
2022/06/23 08:56:14;;;;;;;7.43;3.85;;;25.90;76.10;;;;;;5012801;28;20026;-85
2022/06/23 08:59:31;;;;;;;8.55;3.50;;;25.80;75.30;;;;;;5008924;28;20052;-82
2022/06/23 09:05:47;;;;;;;6.85;3.33;;;26.00;75.70;;;;;;5014325;28;20033;-81
2022/06/23 09:12:07;;;;;;;4.80;3.88;;;26.00;75.50;;;;;;5019980;28;20091;-82
2022/06/23 09:15:12;;;;;;;8.93;3.78;;;26.00;75.20;;;;;;5012892;28;20446;-81
2022/06/23 09:18:31;;;;;;;7.53;3.60;;;26.00;75.90;;;;;;5015172;28;20077;-83
2022/06/23 09:24:37;;;;;;;6.97;3.77;;;26.00;75.00;;;;;;5011205;28;20036;-84
2022/06/23 09:27:25;;;;;;;7.60;3.85;;;26.00;74.40;;;;;;5012142;28;20034;-82
2022/06/23 09:30:00;;;;;;;5.05;3.58;;;26.00;74.20;;;;;;5010173;28;20030;-84
2022/06/23 09:32:48;;;;;;;5.97;4.20;;;26.00;74.30;;;;;;5019075;28;20025;-85
2022/06/23 09:35:23;;;;;;;7.00;4.45;;;26.00;74.80;;;;;;5014074;28;20475;-86
2022/06/23 09:38:21;;;;;;;8.45;4.53;;;26.10;75.20;;;;;;5012100;28;20029;-78
2022/06/23 09:41:20;;;;;;;7.22;4.38;;;26.30;76.60;;;;;;5009656;28;20104;-80
2022/06/23 09:43:48;;;;;;;6.85;4.68;;;26.30;77.90;;;;;;5008556;28;20030;-83
2022/06/23 09:46:17;;;;;;;7.95;4.50;;;26.30;78.70;;;;;;4992805;28;20026;-76
2022/06/23 09:48:47;;;;;;;9.48;4.30;;;26.30;78.10;;;;;;4999824;28;20388;-78
2022/06/23 09:51:30;;;;;;;8.73;4.35;;;26.40;79.00;;;;;;5010234;28;20105;-83
2022/06/23 09:54:36;;;;;;;7.72;4.55;;;26.40;78.30;;;;;;5010578;28;20042;-77
2022/06/23 09:57:11;;;;;;;7.95;4.80;;;26.30;79.10;;;;;;5011141;28;20595;-74
2022/06/23 09:59:55;;;;;;;8.95;4.53;;;26.30;78.80;;;;;;5008964;28;20034;-75
2022/06/23 10:02:40;;;;;;;6.80;4.88;;;26.30;79.10;;;;;;5004420;28;20014;-72
2022/06/23 10:05:50;;;;;;;18.27;5.03;;;26.30;79.40;;;;;;5008812;28;20026;-70
2022/06/23 10:08:34;;;;;;;8.40;5.05;;;26.20;79.40;;;;;;4982844;28;20042;-71
2022/06/23 10:11:38;;;;;;;8.88;5.10;;;26.20;80.00;;;;;;5012506;28;20026;-82
2022/06/23 10:14:26;;;;;;;10.10;5.10;;;26.20;80.50;;;;;;5011370;28;20029;-84
2022/06/23 10:17:30;;;;;;;8.60;4.80;;;26.20;80.50;;;;;;4988028;28;20189;-84
2022/06/23 10:20:45;;;;;;;14.68;5.97;;;26.20;80.90;;;;;;5006721;28;20104;-75
2022/06/23 10:23:38;;;;;;;10.98;6.40;;;26.30;82.00;;;;;;4949377;28;20055;-70
2022/06/23 10:26:34;;;;;;;10.65;5.72;;;26.40;81.80;;;;;;5003335;28;20137;-75
2022/06/23 10:29:03;;;;;;;12.13;6.30;;;26.40;81.90;;;;;;4990357;28;20057;-71
2022/06/23 10:31:46;;;;;;;10.63;7.47;;;26.40;84.20;;;;;;4995674;28;20033;-72
2022/06/23 10:34:22;;;;;;;10.25;7.97;;;26.50;86.50;;;;;;5008060;28;20099;-73
2022/06/23 10:37:20;;;;;;;10.40;8.13;;;26.40;89.40;;;;;;5009099;28;20077;-72
2022/06/23 10:40:13;;;;;;;10.50;8.02;;;26.60;88.70;;;;;;4993236;28;20065;-70
2022/06/23 10:42:52;;;;;;;9.75;7.72;;;26.60;88.70;;;;;;5012402;28;20041;-72
2022/06/23 10:45:26;;;;;;;9.77;7.07;;;26.60;88.30;;;;;;5014409;28;20026;-73
2022/06/23 10:48:09;;;;;;;9.23;6.40;;;26.60;87.70;;;;;;5007294;28;20033;-73
2022/06/23 10:50:41;;;;;;;8.25;5.65;;;26.80;85.90;;;;;;5010952;28;20708;-74
2022/06/23 10:53:40;;;;;;;9.60;6.72;;;27.00;83.80;;;;;;5012725;28;20117;-72
2022/06/23 10:56:34;;;;;;;8.23;6.10;;;26.90;84.70;;;;;;4995156;28;20034;-73
2022/06/23 10:59:14;;;;;;;10.75;6.18;;;26.80;85.40;;;;;;4992409;28;20096;-75
2022/06/23 11:02:00;;;;;;;8.52;5.68;;;26.80;84.80;;;;;;5013170;28;20046;-74
2022/06/23 11:04:52;;;;;;;7.25;5.60;;;26.80;84.20;;;;;;4995110;28;20030;-74
2022/06/23 11:07:36;;;;;;;6.78;4.90;;;26.80;84.00;;;;;;5004895;28;20033;-75
2022/06/23 11:10:20;;;;;;;7.07;5.25;;;27.00;83.60;;;;;;5004770;28;20367;-75
2022/06/23 11:13:19;;;;;;;8.18;5.60;;;26.90;83.00;;;;;;5005157;28;20037;-74
2022/06/23 11:15:48;;;;;;;6.47;4.93;;;26.80;82.90;;;;;;5014847;28;20026;-72
2022/06/23 11:18:26;;;;;;;8.43;4.80;;;26.80;82.80;;;;;;4995426;28;20139;-74
2022/06/23 11:21:19;;;;;;;8.05;4.72;;;26.80;82.70;;;;;;5013687;28;20037;-69
2022/06/23 11:24:03;;;;;;;8.88;5.93;;;26.80;83.10;;;;;;5013312;28;20025;-72
2022/06/23 11:26:57;;;;;;;9.10;4.78;;;26.80;83.40;;;;;;5016271;28;20030;-71
2022/06/23 11:29:45;;;;;;;6.95;4.90;;;27.00;82.50;;;;;;5005645;28;20030;-74
2022/06/23 11:32:42;;;;;;;6.15;4.75;;;26.90;82.70;;;;;;5001076;28;20030;-71
2022/06/23 11:35:26;;;;;;;6.80;4.45;;;26.90;82.80;;;;;;5014678;28;20049;-75
2022/06/23 11:38:35;;;;;;;6.82;4.50;;;26.90;82.70;;;;;;5011680;28;20033;-70
2022/06/23 11:41:19;;;;;;;5.38;4.38;;;26.80;82.40;;;;;;5010823;28;20479;-70
2022/06/23 11:44:21;;;;;;;5.20;4.03;;;26.90;82.00;;;;;;5013983;28;20418;-70
2022/06/23 11:47:25;;;;;;;7.00;4.65;;;26.90;81.70;;;;;;5006109;28;20052;-71
2022/06/23 11:49:52;;;;;;;7.50;4.05;;;26.90;81.60;;;;;;4954598;28;20045;-72
2022/06/23 11:53:13;;;;;;;5.93;4.10;;;26.90;81.40;;;;;;5012352;28;20472;-71
2022/06/23 11:55:48;;;;;;;6.03;4.60;;;26.90;81.30;;;;;;5001202;28;20022;-70
2022/06/23 11:58:41;;;;;;;6.22;4.18;;;26.90;81.30;;;;;;5011295;28;20021;-73
2022/06/23 12:01:17;;;;;;;9.00;3.67;;;26.90;81.40;;;;;;5009782;28;20026;-74
2022/06/23 12:07:41;;;;;;;6.97;4.40;;;26.90;81.10;;;;;;5009325;28;20041;-75
2022/06/23 12:10:22;;;;;;;5.38;3.33;;;26.90;81.30;;;;;;5011368;28;20502;-74
2022/06/23 12:12:51;;;;;;;7.68;3.97;;;26.90;81.20;;;;;;5011518;28;20199;-69
2022/06/23 12:15:21;;;;;;;6.28;4.18;;;26.80;81.00;;;;;;5012843;28;20471;-70
2022/06/23 12:17:56;;;;;;;4.72;3.20;;;26.90;80.90;;;;;;5000656;28;20593;-70
2022/06/23 12:20:40;;;;;;;8.02;4.32;;;26.90;80.90;;;;;;5008440;28;20038;-69
2022/06/23 12:23:38;;;;;;;6.28;3.90;;;26.90;81.00;;;;;;5011119;28;20028;-70
2022/06/23 12:26:23;;;;;;;7.35;4.07;;;26.90;80.40;;;;;;5012541;28;20800;-71
2022/06/23 12:28:55;;;;;;;5.15;3.78;;;26.90;81.30;;;;;;5011571;28;20042;-71
2022/06/23 12:31:48;;;;;;;6.63;3.35;;;26.90;81.40;;;;;;5012460;28;20069;-70
2022/06/23 12:34:48;;;;;;;5.05;3.17;;;26.90;81.10;;;;;;5006015;28;20101;-73
2022/06/23 12:40:46;;;;;;;9.53;3.53;;;27.00;81.00;;;;;;4998900;28;20069;-72
2022/06/23 12:43:31;;;;;;;9.75;3.55;;;26.90;81.00;;;;;;4997693;28;20407;-73
2022/06/23 12:50:01;;;;;;;5.32;3.65;;;27.00;80.90;;;;;;5005221;28;20437;-72
2022/06/23 12:55:53;;;;;;;10.00;4.30;;;26.90;81.50;;;;;;4999873;28;20545;-77
2022/06/23 12:58:22;;;;;;;6.93;3.63;;;26.80;81.40;;;;;;4999189;28;20430;-78
2022/06/23 13:01:10;;;;;;;6.32;4.00;;;26.90;81.20;;;;;;5011862;28;20036;-78
2022/06/23 13:03:55;;;;;;;8.05;4.38;;;26.90;81.30;;;;;;5005547;28;20077;-74
2022/06/23 13:06:34;;;;;;;8.38;4.28;;;26.90;81.50;;;;;;5006926;28;20467;-77
2022/06/23 13:09:24;;;;;;;7.45;4.47;;;26.90;81.20;;;;;;5005535;28;20030;-76
2022/06/23 13:12:13;;;;;;;13.10;4.07;;;26.90;81.50;;;;;;5013198;28;20145;-77
2022/06/23 13:14:48;;;;;;;7.03;3.92;;;26.90;81.50;;;;;;5006781;28;20103;-76
2022/06/23 13:17:48;;;;;;;4.45;3.88;;;26.90;81.30;;;;;;5005559;28;20065;-77
2022/06/23 13:20:22;;;;;;;7.80;3.97;;;26.90;81.30;;;;;;5000739;28;20034;-78
2022/06/23 13:23:12;;;;;;;5.30;3.88;;;27.00;80.10;;;;;;5007723;28;20038;-76
2022/06/23 13:25:57;;;;;;;6.15;4.25;;;26.90;81.20;;;;;;4998751;28;20018;-76
2022/06/23 13:28:34;;;;;;;7.95;3.90;;;26.90;81.20;;;;;;4993067;28;20491;-79
2022/06/23 13:31:22;;;;;;;7.82;3.97;;;26.90;81.00;;;;;;4984960;28;20026;-75
2022/06/23 13:34:04;;;;;;;6.70;3.65;;;26.90;81.00;;;;;;5000693;28;20068;-78
2022/06/23 13:37:02;;;;;;;7.22;3.80;;;27.00;80.90;;;;;;5008082;28;20029;-75
2022/06/23 13:39:48;;;;;;;4.82;3.60;;;26.90;81.30;;;;;;5002941;28;20046;-76
2022/06/23 13:42:22;;;;;;;4.82;3.33;;;26.90;81.40;;;;;;5003820;28;20459;-75
2022/06/23 13:45:19;;;;;;;6.32;3.65;;;26.90;81.40;;;;;;4979715;28;20085;-76
2022/06/23 13:48:26;;;;;;;7.85;3.97;;;26.90;81.30;;;;;;4990280;28;20383;-76
2022/06/23 13:51:02;;;;;;;8.00;4.05;;;26.80;81.30;;;;;;4992431;28;20480;-73
2022/06/23 13:53:40;;;;;;;7.35;3.60;;;26.90;81.10;;;;;;4999565;28;20072;-72
2022/06/23 13:56:34;;;;;;;9.48;4.00;;;26.90;80.80;;;;;;5007158;28;20104;-77
2022/06/23 13:59:30;;;;;;;6.90;3.47;;;27.00;80.70;;;;;;4999622;28;20313;-77
2022/06/23 14:02:03;;;;;;;7.82;3.60;;;27.00;80.50;;;;;;5006962;28;20022;-77
2022/06/23 14:04:46;;;;;;;7.50;3.67;;;26.90;80.50;;;;;;5009529;28;20026;-76
2022/06/23 14:07:43;;;;;;;6.00;3.50;;;26.90;80.50;;;;;;5000177;28;20025;-76
2022/06/23 14:10:27;;;;;;;7.15;3.88;;;26.90;80.40;;;;;;5004222;28;20026;-77
2022/06/23 14:13:30;;;;;;;7.63;4.30;;;26.90;80.30;;;;;;4997378;28;20026;-76
2022/06/23 14:16:13;;;;;;;6.40;3.28;;;26.90;80.10;;;;;;5004460;28;20052;-77
2022/06/23 14:19:16;;;;;;;8.93;3.60;;;27.00;79.70;;;;;;5005088;28;20034;-77
2022/06/23 14:21:51;;;;;;;6.97;3.30;;;27.10;79.70;;;;;;5015610;28;20064;-75
2022/06/23 14:24:33;;;;;;;11.98;3.80;;;27.00;79.40;;;;;;5018501;28;20033;-71
2022/06/23 14:27:15;;;;;;;7.47;3.42;;;27.00;79.40;;;;;;5001035;28;20626;-74
2022/06/23 14:30:00;;;;;;;8.50;3.25;;;27.10;79.00;;;;;;5012184;28;20037;-75
2022/06/23 14:32:45;;;;;;;10.38;3.33;;;27.10;78.80;;;;;;5012371;28;20124;-74
2022/06/23 14:35:25;;;;;;;7.03;3.05;;;27.10;78.90;;;;;;5012978;28;20494;-72
2022/06/23 14:38:04;;;;;;;10.25;3.55;;;27.00;78.00;;;;;;5017169;28;20022;-73
2022/06/23 14:40:42;;;;;;;5.70;2.60;;;27.10;77.30;;;;;;5013494;28;20026;-73
2022/06/23 14:43:43;;;;;;;4.82;3.00;;;27.20;76.90;;;;;;5010041;28;20042;-78
2022/06/23 14:46:24;;;;;;;6.22;2.92;;;27.20;76.30;;;;;;5007772;28;20044;-79
2022/06/23 14:49:06;;;;;;;7.60;2.80;;;27.20;76.40;;;;;;5006067;28;20037;-72
2022/06/23 14:51:44;;;;;;;6.97;2.80;;;27.20;76.60;;;;;;5002445;28;20049;-80
2022/06/23 14:54:24;;;;;;;5.57;2.95;;;27.20;76.30;;;;;;5009005;28;20494;-76
2022/06/23 14:57:14;;;;;;;7.07;2.58;;;27.20;76.30;;;;;;5005546;28;20057;-75